Time;durP1;ratioP1;P1;durP2;ratioP2;P2;SDS_P1;SDS_P2;PMS_P1;PMS_P2;Temp;Humidity;BMP_temperature;BMP_pressure;BME280_temperature;BME280_humidity;BME280_pressure;Samples;Min_cycle;Max_cycle;Signal;HPM_P1;HPM_P2
2021/07/15 00:00:57;;;;;;;;;;;;;;;21.93;63.23;100234.38;2085105;28;19913;-66
2021/07/15 00:01:57;;;;;;;;;;;;;;;21.92;63.23;100232.63;2073911;28;19928;-69
2021/07/15 00:03:00;;;;;;;;;;;;;;;21.93;63.36;100233.50;2082494;28;19925;-67
2021/07/15 00:04:00;;;;;;;;;;;;;;;21.92;63.00;100229.88;2089341;28;20597;-67
2021/07/15 00:05:01;;;;;;;;;;;;;;;21.91;63.12;100230.91;2078192;28;21445;-67
2021/07/15 00:06:01;;;;;;;;;;;;;;;21.91;63.10;100236.41;2084198;28;19920;-67
2021/07/15 00:07:01;;;;;;;;;;;;;;;21.91;63.03;100235.56;2079358;28;19982;-67
2021/07/15 00:08:02;;;;;;;;;;;;;;;21.92;62.95;100231.78;2078793;28;20493;-67
2021/07/15 00:09:03;;;;;;;;;;;;;;;21.91;63.09;100230.06;2082331;28;19912;-66
2021/07/15 00:10:18;;;;;;;;;;;;;;;21.91;63.36;100230.06;2085000;28;20403;-67
2021/07/15 00:11:18;;;;;;;;;;;;;;;21.90;63.29;100229.22;2084514;28;19917;-67
2021/07/15 00:12:19;;;;;;;;;;;;;;;21.90;63.05;100231.06;2081521;28;19917;-66
2021/07/15 00:13:19;;;;;;;;;;;;;;;21.90;63.20;100231.97;2083581;28;19952;-67
2021/07/15 00:14:21;;;;;;;;;;;;;;;21.90;63.20;100231.97;2083221;28;19917;-67
2021/07/15 00:15:23;;;;;;;;;;;;;;;21.90;63.06;100228.34;2084275;28;19917;-67
2021/07/15 00:16:24;;;;;;;;;;;;;;;21.89;63.37;100227.47;2090411;28;19942;-67
2021/07/15 00:17:24;;;;;;;;;;;;;;;21.89;63.04;100226.63;2082063;28;19940;-67
2021/07/15 00:18:26;;;;;;;;;;;;;;;21.89;63.19;100226.63;2083541;28;19950;-67
2021/07/15 00:19:27;;;;;;;;;;;;;;;21.89;63.44;100226.63;2082637;28;19913;-67
2021/07/15 00:20:28;;;;;;;;;;;;;;;21.89;63.10;100223.88;2082805;28;20023;-66
2021/07/15 00:21:29;;;;;;;;;;;;;;;21.89;63.18;100226.63;2083925;28;19913;-67
2021/07/15 00:22:29;;;;;;;;;;;;;;;21.89;63.23;100232.13;2081283;28;19920;-67
2021/07/15 00:23:30;;;;;;;;;;;;;;;21.90;63.32;100228.34;2085254;28;19959;-67
2021/07/15 00:24:31;;;;;;;;;;;;;;;21.88;63.13;100225.78;2083791;28;19974;-66
2021/07/15 00:25:32;;;;;;;;;;;;;;;21.89;63.12;100229.38;2082045;28;19920;-66
2021/07/15 00:26:32;;;;;;;;;;;;;;;21.88;63.05;100222.13;2083793;28;19959;-67
2021/07/15 00:27:33;;;;;;;;;;;;;;;21.88;63.15;100219.41;2083436;28;19913;-67
2021/07/15 00:28:39;;;;;;;;;;;;;;;21.88;63.37;100230.38;2084529;28;19919;-66
2021/07/15 00:29:40;;;;;;;;;;;;;;;21.88;63.20;100222.13;2082906;28;20859;-66
2021/07/15 00:30:40;;;;;;;;;;;;;;;21.87;63.09;100234.16;2083430;28;19913;-67
2021/07/15 00:31:40;;;;;;;;;;;;;;;21.88;63.21;100230.38;2091479;28;20332;-67
2021/07/15 00:32:41;;;;;;;;;;;;;;;21.87;63.11;100231.41;2087086;28;19924;-67
2021/07/15 00:33:41;;;;;;;;;;;;;;;21.88;63.18;100230.38;2083271;28;19921;-67
2021/07/15 00:34:41;;;;;;;;;;;;;;;21.89;63.12;100238.44;2080618;28;19925;-67
2021/07/15 00:35:42;;;;;;;;;;;;;;;21.87;63.17;100228.66;2076108;28;19917;-67
2021/07/15 00:36:42;;;;;;;;;;;;;;;21.87;63.37;100228.66;2087359;28;19948;-67
2021/07/15 00:37:43;;;;;;;;;;;;;;;21.87;63.22;100229.53;2085620;28;19912;-67
2021/07/15 00:38:43;;;;;;;;;;;;;;;21.89;63.23;100237.59;2083901;28;19917;-67
2021/07/15 00:39:44;;;;;;;;;;;;;;;21.88;63.28;100230.38;2082197;28;19917;-67
2021/07/15 00:40:44;;;;;;;;;;;;;;;21.89;63.01;100234.84;2080103;28;20398;-67
2021/07/15 00:41:44;;;;;;;;;;;;;;;21.89;63.01;100237.59;2083723;28;19920;-67
2021/07/15 00:42:45;;;;;;;;;;;;;;;21.88;63.12;100231.25;2083740;28;19962;-67
2021/07/15 00:43:45;;;;;;;;;;;;;;;21.88;63.11;100228.50;2083627;28;20228;-67
2021/07/15 00:44:46;;;;;;;;;;;;;;;21.89;63.25;100229.38;2081766;28;20253;-67
2021/07/15 00:45:46;;;;;;;;;;;;;;;21.88;63.02;100230.38;2083407;28;20019;-67
2021/07/15 00:46:47;;;;;;;;;;;;;;;21.88;63.27;100230.38;2088529;28;20287;-67
2021/07/15 00:47:47;;;;;;;;;;;;;;;21.87;63.14;100223.19;2087303;28;19955;-67
2021/07/15 00:48:48;;;;;;;;;;;;;;;21.89;63.13;100232.13;2083914;28;19916;-67
2021/07/15 00:49:48;;;;;;;;;;;;;;;21.86;63.34;100226.97;2084418;28;19943;-67
2021/07/15 00:50:48;;;;;;;;;;;;;;;21.86;63.12;100226.97;2083040;28;19912;-67
2021/07/15 00:51:48;;;;;;;;;;;;;;;21.86;63.30;100227.81;2088389;28;19944;-67
2021/07/15 00:52:50;;;;;;;;;;;;;;;21.84;63.10;100227.97;2085386;28;19912;-67
2021/07/15 00:53:50;;;;;;;;;;;;;;;21.84;63.25;100227.97;2082586;28;19905;-67
2021/07/15 00:54:51;;;;;;;;;;;;;;;21.85;63.06;100228.81;2082908;28;20007;-67
2021/07/15 00:55:51;;;;;;;;;;;;;;;21.84;63.32;100227.13;2083243;28;19991;-67
2021/07/15 00:56:52;;;;;;;;;;;;;;;21.85;63.32;100226.06;2085314;28;20281;-67
2021/07/15 00:57:53;;;;;;;;;;;;;;;21.84;63.21;100225.22;2083987;28;19913;-67
2021/07/15 00:58:53;;;;;;;;;;;;;;;21.84;63.34;100233.47;2083766;28;19923;-67
2021/07/15 00:59:53;;;;;;;;;;;;;;;21.84;63.17;100233.47;2083123;28;20251;-67
2021/07/15 01:00:54;;;;;;;;;;;;;;;21.84;63.32;100227.97;2083226;28;19916;-67
2021/07/15 01:01:54;;;;;;;;;;;;;;;21.84;63.37;100230.72;2083788;28;19944;-67
2021/07/15 01:02:56;;;;;;;;;;;;;;;21.86;63.30;100232.44;2082224;28;19947;-67
2021/07/15 01:03:56;;;;;;;;;;;;;;;21.84;63.19;100225.22;2091222;28;19912;-67
2021/07/15 01:04:56;;;;;;;;;;;;;;;21.86;63.16;100224.22;2082304;28;20003;-67
2021/07/15 01:05:57;;;;;;;;;;;;;;;21.84;63.09;100219.72;2082637;28;19924;-67
2021/07/15 01:06:57;;;;;;;;;;;;;;;21.83;63.13;100220.78;2080708;28;20299;-67
2021/07/15 01:07:58;;;;;;;;;;;;;;;21.83;63.09;100223.50;2080904;28;20256;-68
2021/07/15 01:08:58;;;;;;;;;;;;;;;21.83;63.14;100223.50;2083289;28;19992;-67
2021/07/15 01:09:58;;;;;;;;;;;;;;;21.82;63.10;100221.78;2082742;28;19917;-67
2021/07/15 01:11:11;;;;;;;;;;;;;;;21.83;63.48;100228.16;2082697;28;19932;-68
2021/07/15 01:12:13;;;;;;;;;;;;;;;21.83;63.32;100218.03;2082659;28;20575;-67
2021/07/15 01:13:32;;;;;;;;;;;;;;;21.83;63.41;100223.50;2083327;28;19952;-67
2021/07/15 01:14:37;;;;;;;;;;;;;;;21.84;63.25;100222.47;2078058;28;19921;-68
2021/07/15 01:15:56;;;;;;;;;;;;;;;21.84;63.23;100219.72;2082803;28;19921;-68
2021/07/15 01:16:59;;;;;;;;;;;;;;;21.84;63.10;100218.88;2083055;28;19956;-68
2021/07/15 01:18:02;;;;;;;;;;;;;;;21.83;63.13;100223.50;2082354;28;20388;-68
2021/07/15 01:19:02;;;;;;;;;;;;;;;21.83;63.30;100220.78;2083047;28;19917;-67
2021/07/15 01:20:10;;;;;;;;;;;;;;;21.83;63.33;100226.25;2081115;28;19917;-68
2021/07/15 01:21:18;;;;;;;;;;;;;;;21.84;63.18;100230.72;2089630;28;19973;-67
2021/07/15 01:22:23;;;;;;;;;;;;;;;21.82;63.12;100227.25;2087322;28;20303;-67
2021/07/15 01:23:43;;;;;;;;;;;;;;;21.83;63.03;100223.50;2084546;28;20215;-68
2021/07/15 01:25:03;;;;;;;;;;;;;;;21.83;63.12;100228.16;2065506;28;19909;-68
2021/07/15 01:26:29;;;;;;;;;;;;;;;21.82;63.35;100220.94;2082842;28;20003;-68
2021/07/15 01:27:36;;;;;;;;;;;;;;;21.81;63.19;100220.06;2082623;28;20300;-67
2021/07/15 01:28:42;;;;;;;;;;;;;;;21.83;63.08;100222.66;2082617;28;20381;-67
2021/07/15 01:29:57;;;;;;;;;;;;;;;21.81;63.02;100220.06;2082642;28;19905;-67
2021/07/15 01:31:01;;;;;;;;;;;;;;;21.82;63.27;100221.78;2078724;28;19913;-67
2021/07/15 01:32:03;;;;;;;;;;;;;;;21.83;63.26;100228.16;2083179;28;19956;-67
2021/07/15 01:33:27;;;;;;;;;;;;;;;21.81;63.25;100220.06;2083218;28;20023;-67
2021/07/15 01:34:27;;;;;;;;;;;;;;;21.82;63.28;100221.78;2078076;28;20011;-68
2021/07/15 01:35:30;;;;;;;;;;;;;;;21.82;63.07;100224.53;2082859;28;19911;-68
2021/07/15 01:36:32;;;;;;;;;;;;;;;21.82;63.04;100227.25;2082315;28;19944;-67
2021/07/15 01:37:32;;;;;;;;;;;;;;;21.81;63.06;100227.44;2083004;28;20380;-67
2021/07/15 01:38:46;;;;;;;;;;;;;;;21.80;63.04;100232.09;2083617;28;20303;-67
2021/07/15 01:39:48;;;;;;;;;;;;;;;21.82;63.04;100231.91;2082705;28;19917;-67
2021/07/15 01:41:09;;;;;;;;;;;;;;;21.81;63.09;100231.06;2078586;28;20283;-67
2021/07/15 01:42:12;;;;;;;;;;;;;;;21.81;63.31;100236.53;2082007;28;19917;-68
2021/07/15 01:43:15;;;;;;;;;;;;;;;21.81;63.29;100231.06;2083405;28;19928;-67
2021/07/15 01:44:26;;;;;;;;;;;;;;;21.81;63.07;100228.31;2081775;28;19920;-68
2021/07/15 01:45:27;;;;;;;;;;;;;;;21.81;63.11;100228.31;2081799;28;19935;-67
2021/07/15 01:46:27;;;;;;;;;;;;;;;21.81;63.19;100233.78;2082442;28;19970;-68
2021/07/15 01:47:28;;;;;;;;;;;;;;;21.80;63.06;100237.56;2082945;28;19955;-68
2021/07/15 01:48:29;;;;;;;;;;;;;;;21.81;63.02;100231.06;2082963;28;20286;-67
2021/07/15 01:49:30;;;;;;;;;;;;;;;21.82;63.18;100220.94;2083450;28;19913;-67
2021/07/15 01:50:31;;;;;;;;;;;;;;;21.81;63.11;100222.81;2082845;28;19996;-67
2021/07/15 01:51:31;;;;;;;;;;;;;;;21.82;63.05;100226.41;2082466;28;19912;-68
2021/07/15 01:52:32;;;;;;;;;;;;;;;21.81;63.04;100225.56;2081595;28;19921;-68
2021/07/15 01:53:32;;;;;;;;;;;;;;;21.80;63.21;100223.84;2083491;28;19923;-68
2021/07/15 01:54:34;;;;;;;;;;;;;;;21.80;63.17;100223.84;2082402;28;20059;-67
2021/07/15 01:55:34;;;;;;;;;;;;;;;21.79;63.00;100222.13;2082745;28;19952;-68
2021/07/15 01:56:36;;;;;;;;;;;;;;;21.78;63.00;100228.66;2082246;28;19913;-68
2021/07/15 01:57:38;;;;;;;;;;;;;;;21.80;63.11;100222.97;2081922;28;19920;-67
2021/07/15 01:58:40;;;;;;;;;;;;;;;21.80;63.00;100221.13;2077792;28;19925;-67
2021/07/15 01:59:41;;;;;;;;;;;;;;;21.79;63.11;100227.59;2085702;28;20383;-67
2021/07/15 02:00:42;;;;;;;;;;;;;;;21.79;63.38;100224.00;2084508;28;19939;-68
2021/07/15 02:01:44;;;;;;;;;;;;;;;21.78;63.25;100220.41;2082989;28;19912;-68
2021/07/15 02:02:45;;;;;;;;;;;;;;;21.79;63.00;100222.13;2082286;28;20004;-68
2021/07/15 02:03:47;;;;;;;;;;;;;;;21.78;63.11;100220.41;2081834;28;20402;-68
2021/07/15 02:04:48;;;;;;;;;;;;;;;21.79;63.15;100216.63;2082700;28;19948;-67
2021/07/15 02:05:49;;;;;;;;;;;;;;;21.78;63.16;100220.41;2079942;28;19912;-67
2021/07/15 02:06:51;;;;;;;;;;;;;;;21.78;63.22;100217.66;2083372;28;20584;-67
2021/07/15 02:07:52;;;;;;;;;;;;;;;21.78;62.97;100220.41;2081799;28;20311;-68
2021/07/15 02:08:53;;;;;;;;;;;;;;;21.79;62.91;100216.63;2081418;28;20507;-67
2021/07/15 02:09:55;;;;;;;;;;;;;;;21.79;63.31;100222.13;2086627;28;20886;-68
2021/07/15 02:10:55;;;;;;;;;;;;;;;21.79;62.98;100226.75;2081452;28;19920;-67
2021/07/15 02:11:56;;;;;;;;;;;;;;;21.78;62.99;100223.16;2082863;28;19920;-67
2021/07/15 02:12:57;;;;;;;;;;;;;;;21.78;63.17;100223.16;2082222;28;19923;-68
2021/07/15 02:13:59;;;;;;;;;;;;;;;21.77;63.07;100221.41;2081862;28;19921;-68
2021/07/15 02:14:59;;;;;;;;;;;;;;;21.78;63.06;100225.91;2080337;28;20322;-68
2021/07/15 02:16:00;;;;;;;;;;;;;;;21.78;63.29;100225.91;2080055;28;19921;-67
2021/07/15 02:17:01;;;;;;;;;;;;;;;21.79;63.03;100227.59;2077789;28;19927;-67
2021/07/15 02:18:02;;;;;;;;;;;;;;;21.77;63.06;100224.16;2082410;28;19917;-67
2021/07/15 02:19:03;;;;;;;;;;;;;;;21.78;63.03;100225.91;2082427;28;20372;-67
2021/07/15 02:20:04;;;;;;;;;;;;;;;21.80;62.96;100234.84;2082686;28;19917;-67
2021/07/15 02:21:05;;;;;;;;;;;;;;;21.79;62.98;100226.75;2083297;28;19913;-67
2021/07/15 02:22:05;;;;;;;;;;;;;;;21.77;63.10;100218.66;2084896;28;20015;-67
2021/07/15 02:23:06;;;;;;;;;;;;;;;21.77;63.00;100224.16;2081841;28;20268;-68
2021/07/15 02:24:08;;;;;;;;;;;;;;;21.77;62.94;100226.91;2081570;28;19913;-67
2021/07/15 02:25:09;;;;;;;;;;;;;;;21.77;63.07;100224.16;2082557;28;19926;-67
2021/07/15 02:26:11;;;;;;;;;;;;;;;21.79;62.99;100227.59;2082899;28;20726;-68
2021/07/15 02:27:12;;;;;;;;;;;;;;;21.79;62.95;100224.84;2089804;28;20375;-67
2021/07/15 02:28:13;;;;;;;;;;;;;;;21.78;63.08;100227.78;2084647;28;19994;-67
2021/07/15 02:29:14;;;;;;;;;;;;;;;21.78;63.18;100225.03;2082774;28;20368;-68
2021/07/15 02:30:15;;;;;;;;;;;;;;;21.78;63.35;100225.91;2083516;28;20269;-67
2021/07/15 02:31:18;;;;;;;;;;;;;;;21.78;63.13;100230.53;2082881;28;19924;-67
2021/07/15 02:32:19;;;;;;;;;;;;;;;21.78;63.17;100225.03;2083018;28;20288;-68
2021/07/15 02:33:26;;;;;;;;;;;;;;;21.77;63.02;100229.66;2082575;28;20067;-67
2021/07/15 02:34:28;;;;;;;;;;;;;;;21.76;62.90;100225.19;2082102;28;19916;-67
2021/07/15 02:35:33;;;;;;;;;;;;;;;21.76;63.05;100225.19;2082907;28;20402;-67
2021/07/15 02:36:34;;;;;;;;;;;;;;;21.77;63.09;100223.31;2083047;28;20725;-68
2021/07/15 02:37:36;;;;;;;;;;;;;;;21.76;63.28;100216.97;2082617;28;19913;-68
2021/07/15 02:38:37;;;;;;;;;;;;;;;21.76;62.99;100219.72;2082098;28;20011;-67
2021/07/15 02:39:38;;;;;;;;;;;;;;;21.76;63.07;100219.72;2080796;28;19935;-68
2021/07/15 02:40:38;;;;;;;;;;;;;;;21.76;63.18;100222.44;2082765;28;19913;-67
2021/07/15 02:41:38;;;;;;;;;;;;;;;21.77;63.18;100226.91;2083232;28;19909;-67
2021/07/15 02:42:40;;;;;;;;;;;;;;;21.76;63.23;100222.44;2080994;28;19923;-68
2021/07/15 02:43:40;;;;;;;;;;;;;;;21.76;62.90;100225.19;2089068;28;20295;-67
2021/07/15 02:44:42;;;;;;;;;;;;;;;21.76;62.94;100216.13;2083868;28;20384;-68
2021/07/15 02:45:43;;;;;;;;;;;;;;;21.76;63.03;100216.13;2087215;28;20005;-67
2021/07/15 02:46:43;;;;;;;;;;;;;;;21.76;62.99;100218.84;2082559;28;19917;-67
2021/07/15 02:47:44;;;;;;;;;;;;;;;21.76;63.02;100225.19;2081407;28;20008;-68
2021/07/15 02:48:44;;;;;;;;;;;;;;;21.76;63.29;100227.09;2082997;28;19920;-67
2021/07/15 02:49:45;;;;;;;;;;;;;;;21.75;62.99;100220.72;2077457;28;20023;-67
2021/07/15 02:50:45;;;;;;;;;;;;;;;21.77;62.99;100220.56;2082394;28;19913;-68
2021/07/15 02:51:45;;;;;;;;;;;;;;;21.75;63.09;100220.72;2084490;28;20387;-68
2021/07/15 02:52:47;;;;;;;;;;;;;;;21.76;63.10;100232.56;2081293;28;19912;-67
2021/07/15 02:53:47;;;;;;;;;;;;;;;21.77;63.01;100228.78;2083159;28;19905;-67
2021/07/15 02:54:48;;;;;;;;;;;;;;;21.76;63.09;100222.44;2083185;28;19924;-68
2021/07/15 02:55:52;;;;;;;;;;;;;;;21.75;62.92;100228.09;2081764;28;19944;-68
2021/07/15 02:56:56;;;;;;;;;;;;;;;21.76;63.04;100233.44;2082565;28;20392;-67
2021/07/15 02:58:02;;;;;;;;;;;;;;;21.76;62.97;100227.94;2082106;28;20398;-67
2021/07/15 02:59:08;;;;;;;;;;;;;;;21.76;62.90;100229.84;2080605;28;19916;-67
2021/07/15 03:00:11;;;;;;;;;;;;;;;21.76;63.06;100224.34;2082209;28;19917;-68
2021/07/15 03:01:13;;;;;;;;;;;;;;;21.76;63.00;100227.09;2081870;28;19982;-67
2021/07/15 03:02:26;;;;;;;;;;;;;;;21.74;63.05;100224.50;2080573;28;19919;-67
2021/07/15 03:03:32;;;;;;;;;;;;;;;21.74;62.94;100221.75;2082063;28;19924;-68
2021/07/15 03:04:37;;;;;;;;;;;;;;;21.75;63.15;100219.88;2080115;28;20442;-68
2021/07/15 03:05:46;;;;;;;;;;;;;;;21.74;62.99;100219.00;2078118;28;19917;-67
2021/07/15 03:06:47;;;;;;;;;;;;;;;21.75;63.06;100220.72;2081276;28;19917;-68
2021/07/15 03:07:49;;;;;;;;;;;;;;;21.75;63.07;100217.97;2080932;28;19916;-67
2021/07/15 03:08:53;;;;;;;;;;;;;;;21.75;63.20;100220.72;2081929;28;19920;-67
2021/07/15 03:09:54;;;;;;;;;;;;;;;21.74;62.93;100215.41;2079547;28;19999;-67
2021/07/15 03:10:55;;;;;;;;;;;;;;;21.74;62.99;100219.00;2079731;28;19916;-67
2021/07/15 03:12:00;;;;;;;;;;;;;;;21.74;63.15;100226.38;2081508;28;19916;-67
2021/07/15 03:13:02;;;;;;;;;;;;;;;21.74;62.99;100219.00;2085319;28;19948;-67
2021/07/15 03:14:03;;;;;;;;;;;;;;;21.74;63.08;100220.91;2082225;28;20011;-68
2021/07/15 03:15:04;;;;;;;;;;;;;;;21.74;62.96;100226.38;2082776;28;20002;-67
2021/07/15 03:16:05;;;;;;;;;;;;;;;21.75;63.00;100226.19;2082158;28;19963;-67
2021/07/15 03:17:17;;;;;;;;;;;;;;;21.73;62.94;100228.28;2082956;28;19959;-67
2021/07/15 03:18:18;;;;;;;;;;;;;;;21.73;63.01;100232.88;2078704;28;19924;-67
2021/07/15 03:19:18;;;;;;;;;;;;;;;21.73;63.12;100232.88;2082432;28;19928;-68
2021/07/15 03:20:23;;;;;;;;;;;;;;;21.74;63.00;100235.47;2082735;28;19967;-67
2021/07/15 03:21:24;;;;;;;;;;;;;;;21.72;63.20;100240.25;2080630;28;19913;-68
2021/07/15 03:22:25;;;;;;;;;;;;;;;21.73;62.96;100228.28;2082713;28;19920;-68
2021/07/15 03:23:26;;;;;;;;;;;;;;;21.73;62.92;100239.25;2082877;28;19952;-67
2021/07/15 03:24:29;;;;;;;;;;;;;;;21.73;63.17;100231.03;2083380;28;19964;-67
2021/07/15 03:25:30;;;;;;;;;;;;;;;21.75;63.01;100236.31;2074790;28;19920;-68
2021/07/15 03:26:31;;;;;;;;;;;;;;;21.75;63.21;100237.19;2078763;28;20061;-68
2021/07/15 03:27:32;;;;;;;;;;;;;;;21.74;63.03;100227.25;2077272;28;19972;-67
2021/07/15 03:28:35;;;;;;;;;;;;;;;21.73;63.01;100233.75;2083022;28;19947;-67
2021/07/15 03:29:36;;;;;;;;;;;;;;;21.73;63.18;100228.28;2081548;28;19920;-68
2021/07/15 03:30:37;;;;;;;;;;;;;;;21.74;63.15;100234.63;2079430;28;19958;-67
2021/07/15 03:31:37;;;;;;;;;;;;;;;21.73;63.32;100232.88;2081016;28;19912;-68
2021/07/15 03:32:38;;;;;;;;;;;;;;;21.72;63.11;100226.53;2082405;28;19916;-67
2021/07/15 03:33:39;;;;;;;;;;;;;;;21.73;63.08;100239.25;2082203;28;19935;-68
2021/07/15 03:34:39;;;;;;;;;;;;;;;21.72;63.00;100237.50;2082299;28;20054;-67
2021/07/15 03:35:41;;;;;;;;;;;;;;;21.72;62.98;100231.16;2080194;28;19913;-68
2021/07/15 03:36:47;;;;;;;;;;;;;;;21.71;62.89;100235.81;2081312;28;20427;-68
2021/07/15 03:37:48;;;;;;;;;;;;;;;21.72;63.04;100231.16;2076892;28;20008;-68
2021/07/15 03:38:49;;;;;;;;;;;;;;;21.72;63.04;100237.50;2079551;28;19905;-67
2021/07/15 03:39:51;;;;;;;;;;;;;;;21.71;62.88;100238.56;2082724;28;19928;-67
2021/07/15 03:40:51;;;;;;;;;;;;;;;21.72;63.03;100228.44;2081708;28;19912;-67
2021/07/15 03:41:52;;;;;;;;;;;;;;;21.71;63.22;100238.56;2087445;28;20377;-67
2021/07/15 03:42:53;;;;;;;;;;;;;;;21.72;63.02;100232.03;2083365;28;19908;-67
2021/07/15 03:43:54;;;;;;;;;;;;;;;21.71;62.99;100235.81;2083946;28;19958;-67
2021/07/15 03:44:56;;;;;;;;;;;;;;;21.72;63.15;100232.03;2087748;28;19940;-68
2021/07/15 03:45:56;;;;;;;;;;;;;;;21.71;62.94;100241.28;2082586;28;20570;-68
2021/07/15 03:46:57;;;;;;;;;;;;;;;21.71;62.96;100226.72;2084385;28;20315;-68
2021/07/15 03:47:57;;;;;;;;;;;;;;;21.71;63.11;100226.72;2080919;28;19956;-68
2021/07/15 03:48:58;;;;;;;;;;;;;;;21.71;62.97;100227.56;2082544;28;19927;-68
2021/07/15 03:49:59;;;;;;;;;;;;;;;21.70;63.09;100225.84;2081725;28;20395;-67
2021/07/15 03:51:01;;;;;;;;;;;;;;;21.71;63.23;100227.56;2082984;28;19920;-67
2021/07/15 03:52:02;;;;;;;;;;;;;;;21.70;62.95;100228.59;2081306;28;19924;-68
2021/07/15 03:53:03;;;;;;;;;;;;;;;21.72;63.07;100231.16;2082734;28;20376;-67
2021/07/15 03:54:04;;;;;;;;;;;;;;;21.71;62.92;100238.56;2084275;28;20279;-67
2021/07/15 03:55:06;;;;;;;;;;;;;;;21.71;63.11;100234.94;2082804;28;19940;-68
2021/07/15 03:56:08;;;;;;;;;;;;;;;21.71;63.11;100223.97;2079796;28;19916;-67
2021/07/15 03:57:12;;;;;;;;;;;;;;;21.70;63.07;100234.06;2081367;28;19917;-67
2021/07/15 03:58:13;;;;;;;;;;;;;;;21.71;63.00;100223.97;2081673;28;19912;-68
2021/07/15 03:59:14;;;;;;;;;;;;;;;21.70;63.20;100222.25;2081684;28;20717;-67
2021/07/15 04:00:15;;;;;;;;;;;;;;;21.69;63.24;100226.03;2082695;28;19904;-67
2021/07/15 04:01:16;;;;;;;;;;;;;;;21.69;63.29;100218.66;2081494;28;19916;-67
2021/07/15 04:02:22;;;;;;;;;;;;;;;21.71;63.14;100223.97;2082465;28;19919;-67
2021/07/15 04:03:24;;;;;;;;;;;;;;;21.69;63.04;100226.88;2082092;28;19919;-67
2021/07/15 04:04:27;;;;;;;;;;;;;;;21.69;63.01;100218.66;2081683;28;19916;-67
2021/07/15 04:05:28;;;;;;;;;;;;;;;21.69;63.09;100218.66;2080846;28;20291;-67
2021/07/15 04:06:29;;;;;;;;;;;;;;;21.69;63.02;100223.28;2082586;28;19920;-67
2021/07/15 04:07:30;;;;;;;;;;;;;;;21.69;63.31;100218.66;2081340;28;19950;-67
2021/07/15 04:08:32;;;;;;;;;;;;;;;21.69;63.07;100226.88;2093362;28;19916;-68
2021/07/15 04:09:34;;;;;;;;;;;;;;;21.69;63.14;100221.38;2088798;28;19917;-68
2021/07/15 04:10:37;;;;;;;;;;;;;;;21.68;62.92;100221.53;2081819;28;19991;-68
2021/07/15 04:11:42;;;;;;;;;;;;;;;21.68;63.01;100230.66;2082469;28;20379;-68
2021/07/15 04:12:42;;;;;;;;;;;;;;;21.70;63.15;100225.84;2083818;28;19916;-67
2021/07/15 04:13:43;;;;;;;;;;;;;;;21.70;63.00;100225.84;2082719;28;19924;-67
2021/07/15 04:15:02;;;;;;;;;;;;;;;21.69;63.26;100226.88;2081389;28;19916;-68
2021/07/15 04:16:21;;;;;;;;;;;;;;;21.68;63.21;100230.66;2080689;28;19916;-67
2021/07/15 04:17:22;;;;;;;;;;;;;;;21.69;62.93;100231.50;2081571;28;19923;-67
2021/07/15 04:18:26;;;;;;;;;;;;;;;21.68;63.24;100230.66;2074492;28;19920;-67
2021/07/15 04:19:27;;;;;;;;;;;;;;;21.68;62.95;100232.50;2080640;28;19956;-68
2021/07/15 04:20:28;;;;;;;;;;;;;;;21.69;63.14;100232.38;2083367;28;20012;-67
2021/07/15 04:21:29;;;;;;;;;;;;;;;21.68;63.25;100225.16;2083420;28;19959;-67
2021/07/15 04:22:29;;;;;;;;;;;;;;;21.69;63.26;100237.84;2080234;28;19917;-68
2021/07/15 04:23:30;;;;;;;;;;;;;;;21.69;63.01;100231.50;2084530;28;19955;-68
2021/07/15 04:24:31;;;;;;;;;;;;;;;21.70;62.99;100228.59;2082408;28;20321;-68
2021/07/15 04:25:32;;;;;;;;;;;;;;;21.69;63.20;100226.88;2086357;28;19954;-67
2021/07/15 04:26:32;;;;;;;;;;;;;;;21.68;62.97;100225.16;2083505;28;21003;-68
2021/07/15 04:27:33;;;;;;;;;;;;;;;21.70;63.00;100223.09;2085686;28;19956;-67
2021/07/15 04:28:34;;;;;;;;;;;;;;;21.68;63.16;100235.25;2090404;28;20109;-67
2021/07/15 04:29:36;;;;;;;;;;;;;;;21.69;62.97;100237.00;2084161;28;20304;-67
2021/07/15 04:30:36;;;;;;;;;;;;;;;21.68;62.96;100230.66;2085995;28;20027;-68
2021/07/15 04:31:56;;;;;;;;;;;;;;;21.69;62.92;100232.38;2084150;28;19947;-68
2021/07/15 04:33:02;;;;;;;;;;;;;;;21.68;63.18;100238.88;2082219;28;19940;-66
2021/07/15 04:34:02;;;;;;;;;;;;;;;21.68;63.24;100236.16;2077073;28;20241;-66
2021/07/15 04:35:05;;;;;;;;;;;;;;;21.68;62.93;100236.16;2082683;28;19971;-66
2021/07/15 04:36:06;;;;;;;;;;;;;;;21.69;63.23;100237.00;2083297;28;19913;-67
2021/07/15 04:37:06;;;;;;;;;;;;;;;21.69;63.03;100232.38;2083141;28;19913;-67
2021/07/15 04:38:07;;;;;;;;;;;;;;;21.68;63.17;100236.16;2085485;28;19943;-66
2021/07/15 04:39:08;;;;;;;;;;;;;;;21.68;62.88;100230.66;2083891;28;19944;-66
2021/07/15 04:40:09;;;;;;;;;;;;;;;21.67;62.99;100228.91;2082347;28;19999;-66
2021/07/15 04:41:10;;;;;;;;;;;;;;;21.68;63.01;100230.66;2083579;28;20371;-67
2021/07/15 04:42:10;;;;;;;;;;;;;;;21.69;63.17;100231.50;2084213;28;19912;-67
2021/07/15 04:43:11;;;;;;;;;;;;;;;21.68;63.27;100230.66;2084244;28;19912;-66
2021/07/15 04:44:12;;;;;;;;;;;;;;;21.68;62.97;100230.66;2082967;28;19959;-67
2021/07/15 04:45:15;;;;;;;;;;;;;;;21.67;63.07;100228.91;2085128;28;19912;-67
2021/07/15 04:46:17;;;;;;;;;;;;;;;21.68;63.24;100236.16;2090891;28;19951;-66
2021/07/15 04:47:19;;;;;;;;;;;;;;;21.67;63.06;100234.41;2084964;28;19946;-67
2021/07/15 04:48:19;;;;;;;;;;;;;;;21.68;62.92;100232.50;2083150;28;19920;-66
2021/07/15 04:49:19;;;;;;;;;;;;;;;21.68;62.92;100229.78;2083737;28;19927;-66
2021/07/15 04:50:21;;;;;;;;;;;;;;;21.68;63.06;100225.16;2083013;28;19928;-66
2021/07/15 04:51:22;;;;;;;;;;;;;;;21.68;63.02;100224.28;2091259;28;19934;-67
2021/07/15 04:52:23;;;;;;;;;;;;;;;21.68;63.01;100229.78;2085926;28;19943;-67
2021/07/15 04:53:24;;;;;;;;;;;;;;;21.67;63.06;100223.44;2084125;28;19913;-66
2021/07/15 04:54:25;;;;;;;;;;;;;;;21.67;62.84;100217.94;2080766;28;19913;-67
2021/07/15 04:55:26;;;;;;;;;;;;;;;21.66;62.94;100232.69;2083133;28;20007;-66
2021/07/15 04:56:27;;;;;;;;;;;;;;;21.66;62.90;100232.69;2083196;28;20380;-66
2021/07/15 04:57:28;;;;;;;;;;;;;;;21.66;63.00;100238.19;2083450;28;20361;-66
2021/07/15 04:58:29;;;;;;;;;;;;;;;21.66;62.99;100238.19;2084263;28;20043;-66
2021/07/15 04:59:30;;;;;;;;;;;;;;;21.66;63.20;100232.69;2082982;28;19909;-67
2021/07/15 05:00:31;;;;;;;;;;;;;;;21.66;63.01;100237.34;2083896;28;19913;-67
2021/07/15 05:01:32;;;;;;;;;;;;;;;21.66;62.80;100232.69;2084527;28;19908;-66
2021/07/15 05:02:32;;;;;;;;;;;;;;;21.66;63.17;100238.19;2082033;28;19936;-67
2021/07/15 05:03:36;;;;;;;;;;;;;;;21.67;62.95;100237.16;2084354;28;19924;-67
2021/07/15 05:04:37;;;;;;;;;;;;;;;21.65;63.12;100241.94;2083301;28;19921;-66
2021/07/15 05:05:37;;;;;;;;;;;;;;;21.66;63.01;100238.19;2082385;28;20106;-66
2021/07/15 05:06:37;;;;;;;;;;;;;;;21.65;63.26;100236.44;2083139;28;19917;-66
2021/07/15 05:07:38;;;;;;;;;;;;;;;21.65;62.85;100239.19;2082086;28;19992;-67
2021/07/15 05:08:39;;;;;;;;;;;;;;;21.66;63.23;100246.41;2084008;28;20396;-66
2021/07/15 05:09:39;;;;;;;;;;;;;;;21.65;62.98;100235.59;2082761;28;19979;-67
2021/07/15 05:10:41;;;;;;;;;;;;;;;21.65;62.96;100239.19;2083669;28;19989;-67
2021/07/15 05:11:41;;;;;;;;;;;;;;;21.65;63.06;100244.69;2083056;28;19966;-67
2021/07/15 05:12:42;;;;;;;;;;;;;;;21.65;62.88;100247.41;2082793;28;19912;-67
2021/07/15 05:13:42;;;;;;;;;;;;;;;21.64;62.96;100245.72;2083610;28;19962;-67
2021/07/15 05:14:42;;;;;;;;;;;;;;;21.65;62.99;100241.06;2084483;28;19916;-67
2021/07/15 05:15:44;;;;;;;;;;;;;;;21.64;63.22;100240.22;2083713;28;20376;-67
2021/07/15 05:16:44;;;;;;;;;;;;;;;21.65;62.92;100241.06;2083065;28;19913;-67
2021/07/15 05:17:45;;;;;;;;;;;;;;;21.64;63.06;100245.72;2082922;28;19912;-67
2021/07/15 05:18:45;;;;;;;;;;;;;;;21.64;63.01;100245.72;2082532;28;19967;-67
2021/07/15 05:19:46;;;;;;;;;;;;;;;21.64;62.95;100245.72;2082981;28;20021;-67